createdAt,value
2023-05-17T00:01:36.055Z,11.40
2023-05-17T00:04:05.783Z,11.40
2023-05-17T00:06:49.407Z,11.30
2023-05-17T00:09:20.728Z,11.30
2023-05-17T00:12:02.096Z,11.30
2023-05-17T00:14:36.087Z,11.30
2023-05-17T00:17:16.370Z,11.20
2023-05-17T00:19:50.146Z,11.20
2023-05-17T00:22:27.604Z,11.20
2023-05-17T00:24:58.563Z,11.20
2023-05-17T00:27:26.856Z,11.10
2023-05-17T00:29:59.694Z,11.10
2023-05-17T00:32:34.833Z,11.10
2023-05-17T00:35:14.327Z,11.10
2023-05-17T00:37:52.039Z,11.10
2023-05-17T00:40:24.212Z,11.00
2023-05-17T00:43:02.249Z,11.00
2023-05-17T00:45:43.283Z,11.00
2023-05-17T00:48:22.486Z,10.90
2023-05-17T00:50:57.810Z,10.90
2023-05-17T00:53:37.459Z,10.90
2023-05-17T00:56:09.203Z,10.80
2023-05-17T00:58:45.258Z,10.80
2023-05-17T01:01:21.660Z,10.80
2023-05-17T01:03:54.609Z,10.80
2023-05-17T01:06:34.813Z,10.70
2023-05-17T01:09:16.219Z,10.70
2023-05-17T01:12:03.434Z,10.70
2023-05-17T01:14:50.869Z,10.70
2023-05-17T01:17:37.314Z,10.70
2023-05-17T01:20:24.353Z,10.70
2023-05-17T01:23:37.130Z,10.70
2023-05-17T01:26:15.255Z,10.70
2023-05-17T01:29:05.370Z,10.70
2023-05-17T01:31:39.858Z,10.70
2023-05-17T01:34:10.409Z,10.70
2023-05-17T01:36:47.501Z,10.70
2023-05-17T01:39:21.359Z,10.70
2023-05-17T01:42:05.835Z,10.60
2023-05-17T01:44:46.732Z,10.60
2023-05-17T01:47:26.533Z,10.60
2023-05-17T01:50:04.719Z,10.50
2023-05-17T01:52:48.224Z,10.50
2023-05-17T01:55:32.125Z,10.50
2023-05-17T01:58:10.439Z,10.40
2023-05-17T02:00:44.341Z,10.40
2023-05-17T02:03:24.491Z,10.30
2023-05-17T02:06:05.416Z,10.40
2023-05-17T02:08:36.480Z,10.40
2023-05-17T02:11:12.668Z,10.30
2023-05-17T02:13:41.666Z,10.30
2023-05-17T02:16:21.652Z,10.30
2023-05-17T02:18:57.033Z,10.30
2023-05-17T02:21:25.307Z,10.20
2023-05-17T02:23:58.906Z,10.20
2023-05-17T02:26:29.534Z,10.20
2023-05-17T02:29:06.912Z,10.20
2023-05-17T02:31:37.356Z,10.20
2023-05-17T02:34:17.624Z,10.20
2023-05-17T02:36:52.250Z,10.20
2023-05-17T02:39:24.371Z,10.20
2023-05-17T02:42:03.681Z,10.20
2023-05-17T02:44:40.785Z,10.20
2023-05-17T02:47:16.201Z,10.10
2023-05-17T02:49:50.795Z,10.10
2023-05-17T02:52:30.895Z,10.00
2023-05-17T02:55:02.575Z,10.00
2023-05-17T02:57:34.625Z,10.00
2023-05-17T03:00:26.229Z,10.00
2023-05-17T03:03:04.521Z,10.00
2023-05-17T03:05:37.371Z,10.00
2023-05-17T03:08:13.612Z,10.00
2023-05-17T03:10:46.185Z,9.90
2023-05-17T03:13:19.532Z,9.90
2023-05-17T03:15:52.983Z,9.90
2023-05-17T03:18:33.605Z,10.00
2023-05-17T03:21:12.616Z,10.00
2023-05-17T03:23:48.876Z,9.90
2023-05-17T03:26:23.434Z,9.90
2023-05-17T03:28:56.508Z,9.90
2023-05-17T03:31:35.551Z,10.00
2023-05-17T03:34:15.877Z,10.00
2023-05-17T03:36:47.664Z,10.00
2023-05-17T03:39:27.028Z,10.00
2023-05-17T03:42:05.243Z,9.90
2023-05-17T03:44:40.829Z,9.90
2023-05-17T03:47:18.746Z,9.90
2023-05-17T03:49:55.891Z,9.90
2023-05-17T03:52:30.531Z,9.90
2023-05-17T03:55:01.354Z,9.90
2023-05-17T03:57:31.832Z,9.90
2023-05-17T04:00:03.124Z,9.90
2023-05-17T04:02:34.414Z,9.80
2023-05-17T04:05:16.045Z,9.80
2023-05-17T04:07:49.334Z,9.80
2023-05-17T04:10:27.331Z,9.80
2023-05-17T04:13:04.051Z,9.80
2023-05-17T04:15:37.465Z,9.80
2023-05-17T04:18:08.304Z,9.90
2023-05-17T04:20:48.424Z,9.90
2023-05-17T04:23:19.313Z,9.90
2023-05-17T04:25:59.307Z,9.90
2023-05-17T04:28:34.491Z,9.90
2023-05-17T04:31:15.618Z,9.90
2023-05-17T04:34:00.113Z,10.00
2023-05-17T04:36:47.790Z,10.00
2023-05-17T04:39:30.778Z,10.10
2023-05-17T04:42:01.903Z,10.10
2023-05-17T04:44:38.800Z,10.20
2023-05-17T04:47:11.902Z,10.30
2023-05-17T04:49:46.754Z,10.40
2023-05-17T04:52:29.148Z,10.40
2023-05-17T04:55:02.873Z,10.50
2023-05-17T04:57:38.890Z,10.70
2023-05-17T05:00:22.129Z,10.80
2023-05-17T05:02:58.746Z,10.90
2023-05-17T05:05:32.138Z,11.10
2023-05-17T05:08:08.400Z,11.20
2023-05-17T05:10:43.787Z,11.40
2023-05-17T05:13:16.476Z,11.60
2023-05-17T05:15:50.679Z,11.80
2023-05-17T05:18:26.502Z,12.00
2023-05-17T05:20:57.212Z,12.40
2023-05-17T05:23:38.032Z,13.10
2023-05-17T05:26:17.470Z,14.00
2023-05-17T05:28:48.083Z,14.90
2023-05-17T05:31:19.313Z,15.60
2023-05-17T05:33:59.120Z,15.80
2023-05-17T05:36:40.069Z,16.10
2023-05-17T05:39:16.349Z,16.50
2023-05-17T05:41:51.045Z,16.80
2023-05-17T05:44:25.736Z,17.30
2023-05-17T05:47:02.019Z,18.10
2023-05-17T05:49:37.486Z,19.00
2023-05-17T05:52:12.001Z,19.90
2023-05-17T05:54:43.975Z,20.70
2023-05-17T05:57:18.431Z,21.40
2023-05-17T06:00:03.607Z,22.10
2023-05-17T06:03:01.034Z,22.80
2023-05-17T06:05:33.979Z,23.50
2023-05-17T06:08:08.297Z,23.90
2023-05-17T06:10:48.185Z,24.30
2023-05-17T06:13:21.331Z,24.40
2023-05-17T06:15:54.890Z,23.70
2023-05-17T06:18:33.082Z,22.10
2023-05-17T06:21:06.570Z,20.40
2023-05-17T06:23:43.914Z,18.80
2023-05-17T06:26:33.785Z,17.40
2023-05-17T06:29:09.467Z,16.30
2023-05-17T06:31:46.186Z,15.60
2023-05-17T06:34:16.619Z,15.00
2023-05-17T06:37:01.787Z,14.60
2023-05-17T06:39:34.215Z,14.40
2023-05-17T06:42:19.670Z,14.20
2023-05-17T06:44:52.585Z,13.90
2023-05-17T06:47:27.859Z,13.70
2023-05-17T06:50:05.321Z,13.50
2023-05-17T06:52:47.210Z,13.40
2023-05-17T06:55:16.825Z,13.40
2023-05-17T06:57:57.214Z,13.20
2023-05-17T07:00:28.803Z,13.10
2023-05-17T07:03:04.915Z,13.00
2023-05-17T07:05:36.991Z,13.00
2023-05-17T07:08:10.160Z,13.00
2023-05-17T07:10:55.420Z,12.90
2023-05-17T07:13:38.831Z,12.90
2023-05-17T07:16:19.849Z,13.00
2023-05-17T07:18:53.795Z,13.00
2023-05-17T07:21:24.780Z,13.10
2023-05-17T07:23:58.452Z,13.10
2023-05-17T07:26:43.913Z,13.10
2023-05-17T07:29:15.776Z,13.20
2023-05-17T07:31:48.763Z,13.30
2023-05-17T07:34:19.804Z,13.40
2023-05-17T07:36:53.159Z,13.40
2023-05-17T07:39:30.369Z,13.40
2023-05-17T07:42:08.328Z,13.50
2023-05-17T07:44:55.302Z,13.50
2023-05-17T07:47:33.756Z,13.50
2023-05-17T07:50:12.292Z,13.50
2023-05-17T07:52:46.046Z,13.50
2023-05-17T07:55:26.399Z,13.50
2023-05-17T07:58:06.592Z,13.60
2023-05-17T08:01:01.538Z,13.60
2023-05-17T08:03:36.032Z,13.60
2023-05-17T08:06:10.762Z,13.40
2023-05-17T08:08:42.741Z,13.40
2023-05-17T08:11:20.304Z,13.30
2023-05-17T08:13:53.616Z,13.40
2023-05-17T08:16:39.556Z,13.30
2023-05-17T08:19:23.973Z,13.40
2023-05-17T08:22:01.941Z,13.40
2023-05-17T08:24:36.136Z,13.40
2023-05-17T08:27:14.990Z,13.40
2023-05-17T08:29:59.421Z,13.40
2023-05-17T08:32:38.902Z,13.50
2023-05-17T08:35:13.605Z,13.50
2023-05-17T08:37:43.981Z,13.40
2023-05-17T08:40:21.213Z,13.30
2023-05-17T08:42:59.100Z,13.40
2023-05-17T08:45:34.613Z,13.50
2023-05-17T08:48:10.819Z,13.60
2023-05-17T08:50:48.462Z,13.80
2023-05-17T08:53:19.094Z,13.80
2023-05-17T08:55:57.623Z,13.90
2023-05-17T08:58:55.673Z,13.90
2023-05-17T09:01:36.946Z,13.90
2023-05-17T09:04:17.396Z,13.90
2023-05-17T09:06:57.913Z,13.80
2023-05-17T09:09:36.681Z,13.80
2023-05-17T09:12:12.825Z,13.70
2023-05-17T09:14:55.294Z,13.70
2023-05-17T09:17:25.809Z,13.70
2023-05-17T09:20:10.775Z,13.70
2023-05-17T09:22:48.390Z,13.80
2023-05-17T09:25:27.038Z,13.80
2023-05-17T09:27:58.673Z,13.90
2023-05-17T09:30:34.551Z,13.90
2023-05-17T09:33:10.913Z,14.00
2023-05-17T09:35:49.098Z,14.10
2023-05-17T09:38:20.816Z,14.00
2023-05-17T09:40:53.309Z,14.00
2023-05-17T09:43:26.867Z,14.00
2023-05-17T09:46:05.041Z,14.00
2023-05-17T09:48:39.210Z,14.10
2023-05-17T09:51:25.086Z,14.10
2023-05-17T09:54:00.476Z,14.20
2023-05-17T09:56:41.045Z,14.20
2023-05-17T09:59:18.276Z,14.10
2023-05-17T10:01:46.728Z,14.00
2023-05-17T10:04:26.340Z,13.90
2023-05-17T10:07:04.754Z,13.80
2023-05-17T10:09:42.787Z,13.70
2023-05-17T10:12:18.456Z,13.70
2023-05-17T10:14:58.182Z,13.70
2023-05-17T10:17:31.968Z,13.70
2023-05-17T10:20:07.176Z,13.70
2023-05-17T10:22:58.606Z,13.70
2023-05-17T10:25:39.689Z,13.70
2023-05-17T10:28:13.935Z,13.70
2023-05-17T10:30:50.808Z,13.70
2023-05-17T10:33:26.631Z,13.70
2023-05-17T10:36:01.818Z,13.70
2023-05-17T10:38:42.329Z,13.70
2023-05-17T10:41:15.041Z,13.80
2023-05-17T10:43:54.487Z,13.80
2023-05-17T10:46:39.015Z,13.90
2023-05-17T10:49:08.556Z,14.00
2023-05-17T10:51:42.017Z,14.00
2023-05-17T10:54:22.741Z,14.00
2023-05-17T10:56:59.956Z,14.00
2023-05-17T10:59:31.993Z,14.00
2023-05-17T11:02:04.875Z,14.10
2023-05-17T11:04:50.897Z,14.20
2023-05-17T11:07:49.719Z,14.30
2023-05-17T11:10:26.522Z,14.40
2023-05-17T11:13:01.531Z,14.50
2023-05-17T11:15:40.163Z,14.60
2023-05-17T11:18:30.054Z,14.60
2023-05-17T11:21:14.693Z,14.60
2023-05-17T11:23:51.877Z,14.60
2023-05-17T11:26:46.063Z,14.60
2023-05-17T11:29:27.707Z,14.70
2023-05-17T11:32:16.983Z,14.70
2023-05-17T11:34:57.761Z,14.70
2023-05-17T11:37:40.302Z,14.80
2023-05-17T11:40:25.057Z,14.80
2023-05-17T11:43:25.625Z,14.90
2023-05-17T11:46:04.897Z,14.80
2023-05-17T11:48:38.099Z,14.90
2023-05-17T11:51:21.376Z,14.90
2023-05-17T11:54:02.157Z,14.90
2023-05-17T11:56:43.679Z,14.90
2023-05-17T11:59:25.934Z,15.00
2023-05-17T12:02:01.980Z,15.10
2023-05-17T12:04:41.318Z,15.20
2023-05-17T12:07:14.007Z,15.20
2023-05-17T12:09:49.693Z,15.20
2023-05-17T12:12:25.666Z,15.20
2023-05-17T12:14:59.436Z,15.20
2023-05-17T12:17:41.589Z,15.20
2023-05-17T12:20:14.916Z,15.20
2023-05-17T12:22:59.020Z,15.20
2023-05-17T12:25:29.955Z,15.20
2023-05-17T12:28:27.397Z,15.30
2023-05-17T12:31:06.371Z,15.20
2023-05-17T12:33:44.121Z,15.30
2023-05-17T12:36:13.815Z,15.30
2023-05-17T12:38:45.637Z,15.30
2023-05-17T12:41:18.106Z,15.30
2023-05-17T12:43:49.669Z,15.40
2023-05-17T12:46:30.245Z,15.30
2023-05-17T12:49:11.252Z,15.30
2023-05-17T12:51:51.461Z,15.30
2023-05-17T12:54:33.860Z,15.30
2023-05-17T12:57:15.793Z,15.30
2023-05-17T12:59:56.400Z,15.30
2023-05-17T13:02:33.397Z,15.30
2023-05-17T13:05:20.637Z,15.30
2023-05-17T13:07:55.578Z,15.30
2023-05-17T13:10:32.194Z,15.40
2023-05-17T13:13:14.261Z,15.40
2023-05-17T13:15:42.407Z,15.50
2023-05-17T13:18:24.547Z,15.50
2023-05-17T13:20:59.291Z,15.50
2023-05-17T13:23:32.701Z,15.50
2023-05-17T13:26:03.181Z,15.60
2023-05-17T13:28:34.835Z,15.60
2023-05-17T13:31:04.794Z,15.70
2023-05-17T13:33:52.955Z,15.70
2023-05-17T13:36:27.032Z,15.80
2023-05-17T13:38:57.313Z,15.80
2023-05-17T13:41:34.838Z,15.90
2023-05-17T13:44:14.838Z,15.90
2023-05-17T13:46:43.663Z,15.90
2023-05-17T13:49:32.750Z,16.00
2023-05-17T13:52:11.332Z,16.00
2023-05-17T13:54:47.267Z,16.00
2023-05-17T13:57:26.516Z,15.90
2023-05-17T14:00:05.363Z,15.90
2023-05-17T14:02:44.347Z,15.90
2023-05-17T14:05:25.219Z,16.00
2023-05-17T14:08:01.968Z,15.90
2023-05-17T14:10:42.989Z,15.90
2023-05-17T14:13:15.797Z,15.90
2023-05-17T14:15:55.864Z,15.90
2023-05-17T14:18:27.246Z,15.90
2023-05-17T14:21:12.380Z,15.90
2023-05-17T14:23:50.142Z,15.90
2023-05-17T14:26:24.295Z,15.90
2023-05-17T14:29:04.888Z,16.00
2023-05-17T14:31:33.284Z,16.00
2023-05-17T14:34:04.802Z,16.10
2023-05-17T14:36:43.136Z,16.10
2023-05-17T14:39:12.631Z,16.10
2023-05-17T14:41:52.924Z,16.20
2023-05-17T14:44:27.339Z,16.20
2023-05-17T14:47:03.316Z,16.40
2023-05-17T14:49:33.851Z,16.50
2023-05-17T14:52:18.652Z,16.50
2023-05-17T14:54:52.853Z,16.60
2023-05-17T14:57:26.186Z,16.60
2023-05-17T14:59:56.548Z,16.70
2023-05-17T15:02:35.977Z,16.70
2023-05-17T15:05:06.419Z,16.70
2023-05-17T15:07:58.805Z,16.60
2023-05-17T15:10:32.708Z,16.70
2023-05-17T15:13:14.041Z,16.70
2023-05-17T15:15:51.917Z,16.80
2023-05-17T15:18:31.149Z,16.80
2023-05-17T15:21:03.475Z,16.80
2023-05-17T15:23:49.972Z,16.90
2023-05-17T15:26:19.223Z,16.90
2023-05-17T15:28:58.599Z,16.80
2023-05-17T15:31:28.894Z,16.90
2023-05-17T15:34:01.793Z,16.90
2023-05-17T15:36:36.920Z,17.00
2023-05-17T15:39:12.498Z,17.00
2023-05-17T15:41:52.743Z,17.00
2023-05-17T15:44:26.638Z,17.10
2023-05-17T15:47:02.941Z,17.10
2023-05-17T15:49:36.081Z,17.20
2023-05-17T15:52:07.859Z,17.10
2023-05-17T15:54:43.368Z,17.10
2023-05-17T15:57:23.245Z,17.00
2023-05-17T15:59:54.029Z,17.00
2023-05-17T16:02:29.978Z,17.00
2023-05-17T16:05:03.721Z,17.10
2023-05-17T16:07:44.419Z,17.20
2023-05-17T16:10:19.260Z,17.20
2023-05-17T16:12:50.286Z,17.20
2023-05-17T16:15:18.857Z,17.30
2023-05-17T16:17:54.006Z,17.30
2023-05-17T16:20:34.023Z,17.30
2023-05-17T16:23:05.913Z,17.30
2023-05-17T16:25:45.589Z,17.30
2023-05-17T16:28:17.556Z,17.30
2023-05-17T16:30:48.453Z,17.10
2023-05-17T16:33:35.250Z,17.00
2023-05-17T16:36:11.250Z,17.00
2023-05-17T16:38:46.615Z,16.90
2023-05-17T16:41:18.220Z,16.90
2023-05-17T16:43:51.002Z,16.90
2023-05-17T16:46:27.691Z,17.00
2023-05-17T16:49:00.155Z,17.10
2023-05-17T16:51:35.392Z,17.20
2023-05-17T16:54:13.705Z,17.30
2023-05-17T16:56:48.694Z,17.30
2023-05-17T16:59:22.723Z,17.30
2023-05-17T17:01:53.869Z,17.30
2023-05-17T17:04:27.549Z,17.20
2023-05-17T17:06:58.938Z,17.10
2023-05-17T17:09:33.908Z,17.10
2023-05-17T17:12:20.248Z,17.10
2023-05-17T17:14:54.440Z,17.20
2023-05-17T17:17:25.556Z,17.20
2023-05-17T17:19:56.867Z,17.20
2023-05-17T17:22:30.547Z,17.20
2023-05-17T17:25:11.919Z,17.30
2023-05-17T17:27:44.613Z,17.30
2023-05-17T17:30:15.225Z,17.30
2023-05-17T17:32:48.408Z,17.20
2023-05-17T17:35:26.302Z,17.20
2023-05-17T17:38:00.629Z,17.10
2023-05-17T17:40:35.583Z,17.00
2023-05-17T17:43:14.658Z,16.90
2023-05-17T17:45:50.234Z,16.80
2023-05-17T17:48:24.583Z,16.70
2023-05-17T17:50:58.823Z,16.70
2023-05-17T17:53:35.200Z,16.70
2023-05-17T17:56:08.610Z,16.70
2023-05-17T17:58:46.235Z,16.70
2023-05-17T18:01:33.500Z,16.70
2023-05-17T18:04:07.502Z,16.70
2023-05-17T18:06:48.896Z,16.70
2023-05-17T18:09:25.425Z,16.70
2023-05-17T18:11:59.121Z,16.60
2023-05-17T18:14:37.280Z,16.60
2023-05-17T18:17:19.292Z,16.60
2023-05-17T18:19:56.249Z,16.60
2023-05-17T18:22:26.827Z,16.60
2023-05-17T18:25:05.992Z,16.50
2023-05-17T18:27:41.518Z,16.50
2023-05-17T18:30:19.685Z,16.50
2023-05-17T18:32:50.101Z,16.50
2023-05-17T18:35:22.654Z,16.50
2023-05-17T18:37:59.215Z,16.40
2023-05-17T18:40:39.226Z,16.40
2023-05-17T18:43:20.982Z,16.40
2023-05-17T18:45:59.238Z,16.40
2023-05-17T18:48:39.232Z,16.40
2023-05-17T18:51:16.020Z,16.30
2023-05-17T18:53:55.382Z,16.20
2023-05-17T18:56:28.415Z,16.20
2023-05-17T18:59:12.987Z,16.20
2023-05-17T19:01:47.918Z,16.10
2023-05-17T19:04:15.882Z,16.00
2023-05-17T19:06:49.834Z,15.90
2023-05-17T19:09:24.085Z,15.90
2023-05-17T19:11:56.674Z,15.80
2023-05-17T19:14:30.803Z,15.80
2023-05-17T19:17:07.344Z,15.80
2023-05-17T19:19:43.165Z,15.80
2023-05-17T19:22:19.888Z,15.80
2023-05-17T19:24:49.959Z,15.80
2023-05-17T19:27:26.741Z,15.70
2023-05-17T19:30:00.722Z,15.70
2023-05-17T19:32:47.534Z,15.70
2023-05-17T19:35:21.120Z,15.70
2023-05-17T19:38:00.178Z,15.60
2023-05-17T19:40:34.294Z,15.60
2023-05-17T19:43:13.299Z,15.50
2023-05-17T19:45:45.031Z,15.40
2023-05-17T19:48:17.354Z,15.40
2023-05-17T19:50:54.364Z,15.30
2023-05-17T19:53:48.294Z,15.30
2023-05-17T19:56:23.742Z,15.20
2023-05-17T19:58:58.592Z,15.10
2023-05-17T20:01:38.133Z,15.10
2023-05-17T20:04:25.799Z,15.00
2023-05-17T20:07:06.257Z,15.00
2023-05-17T20:09:44.513Z,14.90
2023-05-17T20:12:18.028Z,14.80
2023-05-17T20:14:49.347Z,14.80
2023-05-17T20:17:30.328Z,14.70
2023-05-17T20:20:12.597Z,14.70
2023-05-17T20:22:55.046Z,14.60
2023-05-17T20:25:36.781Z,14.50
2023-05-17T20:28:10.225Z,14.40
2023-05-17T20:30:45.010Z,14.40
2023-05-17T20:33:21.370Z,14.30
2023-05-17T20:36:01.520Z,14.30
2023-05-17T20:38:38.639Z,14.20
2023-05-17T20:41:18.972Z,14.20
2023-05-17T20:43:55.748Z,14.10
2023-05-17T20:46:32.368Z,14.10
2023-05-17T20:49:06.241Z,14.00
2023-05-17T20:51:48.334Z,14.00
2023-05-17T20:54:22.311Z,14.00
2023-05-17T20:57:02.449Z,13.90
2023-05-17T20:59:35.217Z,13.90
2023-05-17T21:02:13.695Z,13.90
2023-05-17T21:04:50.734Z,13.80
2023-05-17T21:07:32.315Z,13.80
2023-05-17T21:10:05.386Z,13.80
2023-05-17T21:12:39.293Z,13.80
2023-05-17T21:15:17.067Z,13.70
2023-05-17T21:17:54.687Z,13.70
2023-05-17T21:20:25.334Z,13.70
2023-05-17T21:23:10.427Z,13.60
2023-05-17T21:25:47.317Z,13.60
2023-05-17T21:28:18.880Z,13.50
2023-05-17T21:30:51.059Z,13.50
2023-05-17T21:33:25.029Z,13.50
2023-05-17T21:35:58.566Z,13.50
2023-05-17T21:38:36.429Z,13.40
2023-05-17T21:41:10.866Z,13.40
2023-05-17T21:43:43.116Z,13.40
2023-05-17T21:46:16.254Z,13.30
2023-05-17T21:48:48.091Z,13.30
2023-05-17T21:51:26.490Z,13.30
2023-05-17T21:54:04.694Z,13.20
2023-05-17T21:56:45.204Z,13.20
2023-05-17T21:59:23.067Z,13.20
2023-05-17T22:02:00.166Z,13.10
2023-05-17T22:04:30.667Z,13.10
2023-05-17T22:07:04.794Z,13.10
2023-05-17T22:09:43.133Z,13.00
2023-05-17T22:12:12.424Z,13.00
2023-05-17T22:14:46.079Z,13.00
2023-05-17T22:20:06.549Z,12.80
2023-05-17T22:22:37.605Z,12.80
2023-05-17T22:25:12.572Z,12.80
2023-05-17T22:27:48.703Z,12.70
2023-05-17T22:30:29.588Z,12.70
2023-05-17T22:33:10.067Z,12.70
2023-05-17T22:35:42.171Z,12.70
2023-05-17T22:38:19.467Z,12.60
2023-05-17T22:41:05.337Z,12.60
2023-05-17T22:43:48.300Z,12.50
2023-05-17T22:46:24.333Z,12.50
2023-05-17T22:49:07.485Z,12.40
2023-05-17T22:51:43.948Z,12.40
2023-05-17T22:54:16.253Z,12.30
2023-05-17T22:57:00.711Z,12.30
2023-05-17T22:59:32.326Z,12.20
2023-05-17T23:02:02.971Z,12.20
2023-05-17T23:04:49.642Z,12.10
2023-05-17T23:07:26.832Z,12.10
2023-05-17T23:10:00.406Z,12.00
2023-05-17T23:12:39.671Z,11.90
2023-05-17T23:15:10.413Z,11.90
2023-05-17T23:17:44.239Z,11.90
2023-05-17T23:20:20.221Z,11.80
2023-05-17T23:23:00.129Z,11.70
2023-05-17T23:25:32.786Z,11.60
2023-05-17T23:28:09.396Z,11.50
2023-05-17T23:30:43.571Z,11.50
2023-05-17T23:33:17.361Z,11.50
2023-05-17T23:35:49.391Z,11.40
2023-05-17T23:38:34.978Z,11.30
2023-05-17T23:41:18.934Z,11.30
2023-05-17T23:44:05.479Z,11.30
2023-05-17T23:46:36.297Z,11.30
2023-05-17T23:49:17.703Z,11.20
2023-05-17T23:51:57.791Z,11.20
2023-05-17T23:54:31.132Z,11.20
2023-05-17T23:57:02.472Z,11.10
2023-05-17T23:59:34.232Z,11.10
